Irma, Louisiana
Current Conditions -  °F | °C
As of 4:55 AM on Friday 19 Dec 2014 (Local Time) from KIER Reporting Station
Light Rain Light Rain  
Wind Chill: 50°   Ceiling: 1600
Heat Index: 50°   Visibility: 7mi
Dew Point: 48°   Wind: 3mph
Humidity: 94%   Direction: 70°ENE
Pressure: 30.1"   Gusts: NA
Location:  31.7831°N, 93.1496°W
Report Text: KIER 191055Z AUTO 07003KT 7SM -RA OVC016 10/09 A3010 RMK AO2 T01000090
Loading
Personal Weather Stations






























Interactive Weather Map New forecast layout! Learn more

10-Day Weather Forecast

Advertisements
Track Severe Weather on mobile